Terminal Aerodrome Forecast
Issued by NWS

Home | Current Version | Previous Version | Text Only | Print | Product List | Glossary On
Versions: 1 2 3 4 5 6 7 8 9 10 11 12 13 14 15 16 17 18
000
FTUS41 KBTV 242300
TAFMSS
TAF
KMSS 242325Z 2500/2524 24004KT P6SM SKC
      TEMPO 2507/2511 1SM BR SCT001
     FM251600 23010G16KT P6SM SKC=

USA.gov is the U.S. government's official web portal to all federal, state and local government web resources and services.